sensor_id;sensor_type;location;lat;lon;timestamp;pressure;altitude;pressure_sealevel;temperature;humidity
73240;BME280;61452;40.054;4.110;2023-10-31T00:04:36;101243.75;;;22.16;100.00
73240;BME280;61452;40.054;4.110;2023-10-31T00:09:39;101256.41;;;22.14;100.00
73240;BME280;61452;40.054;4.110;2023-10-31T00:14:42;101269.34;;;22.18;100.00
73240;BME280;61452;40.054;4.110;2023-10-31T00:19:44;101261.75;;;22.14;100.00
73240;BME280;61452;40.054;4.110;2023-10-31T00:24:46;101262.44;;;22.16;100.00
73240;BME280;61452;40.054;4.110;2023-10-31T00:29:48;101267.78;;;22.16;100.00
73240;BME280;61452;40.054;4.110;2023-10-31T00:34:50;101275.13;;;22.14;100.00
73240;BME280;61452;40.054;4.110;2023-10-31T00:39:54;101278.66;;;22.14;100.00
73240;BME280;61452;40.054;4.110;2023-10-31T00:44:56;101267.09;;;22.14;100.00
73240;BME280;61452;40.054;4.110;2023-10-31T00:49:58;101270.22;;;22.19;100.00
73240;BME280;61452;40.054;4.110;2023-10-31T00:55:01;101273.84;;;22.18;100.00
73240;BME280;61452;40.054;4.110;2023-10-31T01:00:03;101277.50;;;22.17;100.00
73240;BME280;61452;40.054;4.110;2023-10-31T01:05:05;101267.78;;;22.16;100.00
73240;BME280;61452;40.054;4.110;2023-10-31T01:10:08;101275.97;;;22.14;100.00
73240;BME280;61452;40.054;4.110;2023-10-31T01:15:10;101283.13;;;22.14;100.00
73240;BME280;61452;40.054;4.110;2023-10-31T01:20:13;101284.00;;;22.14;100.00
73240;BME280;61452;40.054;4.110;2023-10-31T01:25:16;101289.88;;;22.18;100.00
73240;BME280;61452;40.054;4.110;2023-10-31T01:30:19;101292.00;;;22.14;100.00
73240;BME280;61452;40.054;4.110;2023-10-31T01:35:21;101296.22;;;22.17;100.00
73240;BME280;61452;40.054;4.110;2023-10-31T01:40:23;101292.38;;;22.10;100.00
73240;BME280;61452;40.054;4.110;2023-10-31T01:45:25;101289.72;;;22.10;100.00
73240;BME280;61452;40.054;4.110;2023-10-31T01:50:31;101310.84;;;22.13;100.00
73240;BME280;61452;40.054;4.110;2023-10-31T01:55:33;101303.66;;;22.13;100.00
73240;BME280;61452;40.054;4.110;2023-10-31T02:00:36;101289.88;;;22.08;100.00
73240;BME280;61452;40.054;4.110;2023-10-31T02:05:42;101299.72;;;22.17;100.00
73240;BME280;61452;40.054;4.110;2023-10-31T02:10:45;101301.25;;;22.10;100.00
73240;BME280;61452;40.054;4.110;2023-10-31T02:15:47;101294.25;;;22.09;100.00
73240;BME280;61452;40.054;4.110;2023-10-31T02:20:50;101298.44;;;22.12;100.00
73240;BME280;61452;40.054;4.110;2023-10-31T02:25:52;101299.31;;;22.12;100.00
73240;BME280;61452;40.054;4.110;2023-10-31T02:30:54;101297.03;;;22.08;100.00
73240;BME280;61452;40.054;4.110;2023-10-31T02:35:59;101296.47;;;22.04;100.00
73240;BME280;61452;40.054;4.110;2023-10-31T02:41:01;101308.00;;;22.05;100.00
73240;BME280;61452;40.054;4.110;2023-10-31T02:46:04;101319.53;;;22.05;100.00
73240;BME280;61452;40.054;4.110;2023-10-31T02:51:07;101322.91;;;22.07;100.00
73240;BME280;61452;40.054;4.110;2023-10-31T02:56:09;101331.19;;;22.04;100.00
73240;BME280;61452;40.054;4.110;2023-10-31T03:01:12;101325.72;;;22.06;100.00
73240;BME280;61452;40.054;4.110;2023-10-31T03:06:14;101334.56;;;22.06;100.00
73240;BME280;61452;40.054;4.110;2023-10-31T03:11:23;101344.16;;;22.09;100.00
73240;BME280;61452;40.054;4.110;2023-10-31T03:16:25;101341.88;;;22.04;100.00
73240;BME280;61452;40.054;4.110;2023-10-31T03:21:28;101355.81;;;22.08;100.00
73240;BME280;61452;40.054;4.110;2023-10-31T03:26:30;101354.84;;;22.09;100.00
73240;BME280;61452;40.054;4.110;2023-10-31T03:31:32;101349.88;;;22.04;100.00
73240;BME280;61452;40.054;4.110;2023-10-31T03:36:34;101366.63;;;22.06;100.00
73240;BME280;61452;40.054;4.110;2023-10-31T03:41:36;101368.47;;;22.06;100.00
73240;BME280;61452;40.054;4.110;2023-10-31T03:46:38;101369.06;;;22.09;100.00
73240;BME280;61452;40.054;4.110;2023-10-31T03:51:41;101379.59;;;22.11;100.00
73240;BME280;61452;40.054;4.110;2023-10-31T03:56:43;101385.09;;;22.09;100.00
73240;BME280;61452;40.054;4.110;2023-10-31T04:01:47;101386.75;;;22.10;100.00
73240;BME280;61452;40.054;4.110;2023-10-31T04:06:49;101379.88;;;22.08;100.00
73240;BME280;61452;40.054;4.110;2023-10-31T04:11:51;101396.75;;;22.08;100.00
73240;BME280;61452;40.054;4.110;2023-10-31T04:16:53;101404.91;;;22.07;100.00
73240;BME280;61452;40.054;4.110;2023-10-31T04:21:55;101399.56;;;22.07;100.00
73240;BME280;61452;40.054;4.110;2023-10-31T04:26:58;101412.34;;;22.03;100.00
73240;BME280;61452;40.054;4.110;2023-10-31T04:32:00;101407.25;;;22.00;100.00
73240;BME280;61452;40.054;4.110;2023-10-31T04:37:02;101413.31;;;22.02;100.00
73240;BME280;61452;40.054;4.110;2023-10-31T04:42:04;101432.72;;;22.04;100.00
73240;BME280;61452;40.054;4.110;2023-10-31T04:47:06;101442.44;;;22.05;100.00
73240;BME280;61452;40.054;4.110;2023-10-31T04:52:09;101447.91;;;22.04;100.00
73240;BME280;61452;40.054;4.110;2023-10-31T04:57:11;101449.88;;;22.02;100.00
73240;BME280;61452;40.054;4.110;2023-10-31T05:02:13;101459.84;;;22.00;100.00
73240;BME280;61452;40.054;4.110;2023-10-31T05:07:15;101458.97;;;21.99;100.00
73240;BME280;61452;40.054;4.110;2023-10-31T05:12:18;101467.59;;;22.03;100.00
73240;BME280;61452;40.054;4.110;2023-10-31T05:17:20;101475.63;;;22.03;100.00
73240;BME280;61452;40.054;4.110;2023-10-31T05:22:22;101473.91;;;22.02;100.00
73240;BME280;61452;40.054;4.110;2023-10-31T05:27:26;101469.53;;;22.01;100.00
73240;BME280;61452;40.054;4.110;2023-10-31T05:32:31;101476.72;;;22.00;100.00
73240;BME280;61452;40.054;4.110;2023-10-31T05:37:33;101494.84;;;21.97;100.00
73240;BME280;61452;40.054;4.110;2023-10-31T05:42:36;101489.63;;;21.95;100.00
73240;BME280;61452;40.054;4.110;2023-10-31T05:47:38;101491.31;;;21.96;100.00
73240;BME280;61452;40.054;4.110;2023-10-31T05:52:40;101495.53;;;21.99;100.00
73240;BME280;61452;40.054;4.110;2023-10-31T05:57:42;101504.53;;;21.98;100.00
73240;BME280;61452;40.054;4.110;2023-10-31T06:02:44;101526.13;;;21.95;100.00
73240;BME280;61452;40.054;4.110;2023-10-31T06:07:46;101524.22;;;21.97;100.00
73240;BME280;61452;40.054;4.110;2023-10-31T06:12:49;101528.44;;;21.99;100.00
73240;BME280;61452;40.054;4.110;2023-10-31T06:17:52;101531.47;;;21.95;100.00
73240;BME280;61452;40.054;4.110;2023-10-31T06:22:54;101550.19;;;21.95;100.00
73240;BME280;61452;40.054;4.110;2023-10-31T06:27:56;101564.50;;;21.94;100.00
73240;BME280;61452;40.054;4.110;2023-10-31T06:32:58;101572.81;;;21.91;100.00
73240;BME280;61452;40.054;4.110;2023-10-31T06:38:02;101571.09;;;21.90;100.00
73240;BME280;61452;40.054;4.110;2023-10-31T06:43:04;101557.28;;;21.85;100.00
73240;BME280;61452;40.054;4.110;2023-10-31T06:48:06;101572.19;;;21.87;100.00
73240;BME280;61452;40.054;4.110;2023-10-31T06:53:11;101578.50;;;21.86;100.00
73240;BME280;61452;40.054;4.110;2023-10-31T06:58:13;101582.88;;;21.87;100.00
73240;BME280;61452;40.054;4.110;2023-10-31T07:03:15;101594.28;;;21.89;100.00
73240;BME280;61452;40.054;4.110;2023-10-31T07:08:18;101604.38;;;21.86;100.00
73240;BME280;61452;40.054;4.110;2023-10-31T07:13:20;101621.97;;;21.88;100.00
73240;BME280;61452;40.054;4.110;2023-10-31T07:18:22;101608.72;;;21.87;100.00
73240;BME280;61452;40.054;4.110;2023-10-31T07:23:24;101610.72;;;21.85;100.00
73240;BME280;61452;40.054;4.110;2023-10-31T07:28:27;101618.72;;;21.85;100.00
73240;BME280;61452;40.054;4.110;2023-10-31T07:33:29;101632.78;;;21.87;100.00
73240;BME280;61452;40.054;4.110;2023-10-31T07:38:31;101641.06;;;21.84;100.00
73240;BME280;61452;40.054;4.110;2023-10-31T07:43:33;101639.09;;;21.86;100.00
73240;BME280;61452;40.054;4.110;2023-10-31T07:48:39;101641.53;;;21.89;100.00
73240;BME280;61452;40.054;4.110;2023-10-31T07:53:41;101653.06;;;21.89;100.00
73240;BME280;61452;40.054;4.110;2023-10-31T07:58:44;101651.34;;;21.88;100.00
73240;BME280;61452;40.054;4.110;2023-10-31T08:03:46;101665.56;;;21.89;100.00
73240;BME280;61452;40.054;4.110;2023-10-31T08:08:49;101663.84;;;21.88;100.00
73240;BME280;61452;40.054;4.110;2023-10-31T08:13:52;101667.50;;;21.87;100.00
73240;BME280;61452;40.054;4.110;2023-10-31T08:18:54;101671.28;;;21.84;100.00
73240;BME280;61452;40.054;4.110;2023-10-31T08:23:57;101676.25;;;21.89;100.00
73240;BME280;61452;40.054;4.110;2023-10-31T08:28:59;101682.31;;;21.91;100.00
73240;BME280;61452;40.054;4.110;2023-10-31T08:34:01;101696.38;;;21.93;100.00
73240;BME280;61452;40.054;4.110;2023-10-31T08:39:03;101692.88;;;21.92;100.00
73240;BME280;61452;40.054;4.110;2023-10-31T08:44:06;101689.72;;;21.87;100.00
73240;BME280;61452;40.054;4.110;2023-10-31T08:49:08;101693.00;;;21.91;100.00
73240;BME280;61452;40.054;4.110;2023-10-31T08:54:10;101701.03;;;21.91;100.00
73240;BME280;61452;40.054;4.110;2023-10-31T08:59:13;101708.31;;;21.89;100.00
73240;BME280;61452;40.054;4.110;2023-10-31T09:04:15;101707.19;;;21.91;100.00
73240;BME280;61452;40.054;4.110;2023-10-31T09:09:17;101715.34;;;21.90;100.00
73240;BME280;61452;40.054;4.110;2023-10-31T09:14:20;101710.72;;;21.92;100.00
73240;BME280;61452;40.054;4.110;2023-10-31T09:19:22;101718.88;;;21.90;100.00
73240;BME280;61452;40.054;4.110;2023-10-31T09:24:24;101728.81;;;21.88;100.00
73240;BME280;61452;40.054;4.110;2023-10-31T09:29:26;101729.56;;;21.90;100.00
73240;BME280;61452;40.054;4.110;2023-10-31T09:34:31;101739.25;;;21.91;100.00
73240;BME280;61452;40.054;4.110;2023-10-31T09:39:33;101727.13;;;21.87;100.00
73240;BME280;61452;40.054;4.110;2023-10-31T09:44:35;101742.28;;;21.87;100.00
73240;BME280;61452;40.054;4.110;2023-10-31T09:49:37;101755.75;;;21.85;100.00
73240;BME280;61452;40.054;4.110;2023-10-31T09:54:41;101753.25;;;21.84;100.00
73240;BME280;61452;40.054;4.110;2023-10-31T09:59:47;101756.75;;;21.84;100.00
73240;BME280;61452;40.054;4.110;2023-10-31T10:04:49;101754.94;;;21.85;100.00
73240;BME280;61452;40.054;4.110;2023-10-31T10:09:52;101756.63;;;21.86;100.00
73240;BME280;61452;40.054;4.110;2023-10-31T10:14:57;101764.78;;;21.84;100.00
73240;BME280;61452;40.054;4.110;2023-10-31T10:20:05;101784.31;;;21.85;100.00
73240;BME280;61452;40.054;4.110;2023-10-31T10:25:12;101777.41;;;21.82;100.00
73240;BME280;61452;40.054;4.110;2023-10-31T10:30:16;101773.88;;;21.82;100.00
73240;BME280;61452;40.054;4.110;2023-10-31T10:35:18;101761.47;;;21.80;100.00
73240;BME280;61452;40.054;4.110;2023-10-31T10:40:21;101769.50;;;21.80;100.00
73240;BME280;61452;40.054;4.110;2023-10-31T10:45:24;101775.56;;;21.83;100.00
73240;BME280;61452;40.054;4.110;2023-10-31T10:50:27;101773.88;;;21.82;100.00
73240;BME280;61452;40.054;4.110;2023-10-31T10:55:35;101768.53;;;21.82;100.00
73240;BME280;61452;40.054;4.110;2023-10-31T11:00:40;101759.56;;;21.83;100.00
73240;BME280;61452;40.054;4.110;2023-10-31T11:05:43;101755.44;;;21.78;100.00
73240;BME280;61452;40.054;4.110;2023-10-31T11:10:46;101755.19;;;21.82;100.00
73240;BME280;61452;40.054;4.110;2023-10-31T11:15:54;101777.41;;;21.82;100.00
73240;BME280;61452;40.054;4.110;2023-10-31T11:20:57;101767.78;;;21.79;100.00
73240;BME280;61452;40.054;4.110;2023-10-31T11:26:00;101756.25;;;21.79;100.00
73240;BME280;61452;40.054;4.110;2023-10-31T11:31:02;101751.78;;;21.79;100.00
73240;BME280;61452;40.054;4.110;2023-10-31T11:36:05;101759.78;;;21.79;100.00
73240;BME280;61452;40.054;4.110;2023-10-31T11:41:07;101759.78;;;21.79;100.00
73240;BME280;61452;40.054;4.110;2023-10-31T11:46:20;101760.03;;;21.76;100.00
73240;BME280;61452;40.054;4.110;2023-10-31T11:51:25;101740.13;;;21.80;100.00
73240;BME280;61452;40.054;4.110;2023-10-31T11:56:28;101739.28;;;21.80;100.00
73240;BME280;61452;40.054;4.110;2023-10-31T12:01:30;101747.28;;;21.80;100.00
73240;BME280;61452;40.054;4.110;2023-10-31T12:06:32;101740.97;;;21.81;100.00
73240;BME280;61452;40.054;4.110;2023-10-31T12:11:44;101720.44;;;21.82;100.00
73240;BME280;61452;40.054;4.110;2023-10-31T12:16:46;101730.28;;;21.81;100.00
73240;BME280;61452;40.054;4.110;2023-10-31T12:21:49;101737.44;;;21.80;100.00
73240;BME280;61452;40.054;4.110;2023-10-31T12:26:52;101722.16;;;21.83;100.00
73240;BME280;61452;40.054;4.110;2023-10-31T12:31:54;101712.44;;;21.82;100.00
73240;BME280;61452;40.054;4.110;2023-10-31T12:37:00;101705.28;;;21.82;100.00
73240;BME280;61452;40.054;4.110;2023-10-31T12:42:03;101706.13;;;21.83;100.00
73240;BME280;61452;40.054;4.110;2023-10-31T12:47:07;101704.91;;;21.87;100.00
73240;BME280;61452;40.054;4.110;2023-10-31T12:52:10;101723.38;;;21.90;100.00
73240;BME280;61452;40.054;4.110;2023-10-31T12:57:12;101710.97;;;21.89;100.00
73240;BME280;61452;40.054;4.110;2023-10-31T13:02:18;101701.25;;;21.88;100.00
73240;BME280;61452;40.054;4.110;2023-10-31T13:07:26;101702.22;;;21.87;100.00
73240;BME280;61452;40.054;4.110;2023-10-31T13:12:30;101710.13;;;21.88;100.00
73240;BME280;61452;40.054;4.110;2023-10-31T13:17:35;101708.19;;;21.90;100.00
73240;BME280;61452;40.054;4.110;2023-10-31T13:22:41;101698.19;;;21.92;100.00
73240;BME280;61452;40.054;4.110;2023-10-31T13:27:44;101693.81;;;21.91;100.00
73240;BME280;61452;40.054;4.110;2023-10-31T13:32:49;101683.53;;;21.87;100.00
73240;BME280;61452;40.054;4.110;2023-10-31T13:37:51;101681.81;;;21.86;100.00
73240;BME280;61452;40.054;4.110;2023-10-31T13:42:53;101698.47;;;21.89;100.00
73240;BME280;61452;40.054;4.110;2023-10-31T13:47:55;101707.19;;;21.91;100.00
73240;BME280;61452;40.054;4.110;2023-10-31T13:52:58;101703.06;;;21.87;100.00
73240;BME280;61452;40.054;4.110;2023-10-31T13:58:00;101703.94;;;21.88;100.00
73240;BME280;61452;40.054;4.110;2023-10-31T14:03:03;101701.84;;;21.91;100.00
73240;BME280;61452;40.054;4.110;2023-10-31T14:08:06;101709.28;;;21.88;100.00
73240;BME280;61452;40.054;4.110;2023-10-31T14:13:09;101733.78;;;21.93;100.00
73240;BME280;61452;40.054;4.110;2023-10-31T14:18:11;101715.94;;;21.93;100.00
73240;BME280;61452;40.054;4.110;2023-10-31T14:23:13;101712.22;;;21.96;100.00
73240;BME280;61452;40.054;4.110;2023-10-31T14:28:16;101726.28;;;21.98;100.00
73240;BME280;61452;40.054;4.110;2023-10-31T14:33:18;101712.06;;;21.97;100.00
73240;BME280;61452;40.054;4.110;2023-10-31T14:38:20;101718.88;;;22.01;100.00
73240;BME280;61452;40.054;4.110;2023-10-31T14:43:23;101717.75;;;22.04;100.00
73240;BME280;61452;40.054;4.110;2023-10-31T14:48:25;101714.25;;;22.03;100.00
73240;BME280;61452;40.054;4.110;2023-10-31T14:53:27;101712.69;;;22.01;100.00
73240;BME280;61452;40.054;4.110;2023-10-31T14:58:29;101718.75;;;22.03;100.00
73240;BME280;61452;40.054;4.110;2023-10-31T15:03:32;101716.09;;;22.03;100.00
73240;BME280;61452;40.054;4.110;2023-10-31T15:08:34;101707.22;;;22.02;100.00
73240;BME280;61452;40.054;4.110;2023-10-31T15:13:36;101711.72;;;22.02;100.00
73240;BME280;61452;40.054;4.110;2023-10-31T15:18:38;101712.56;;;22.02;100.00
73240;BME280;61452;40.054;4.110;2023-10-31T15:23:43;101727.75;;;22.02;100.00
73240;BME280;61452;40.054;4.110;2023-10-31T15:28:45;101728.59;;;22.02;100.00
73240;BME280;61452;40.054;4.110;2023-10-31T15:33:47;101730.53;;;22.00;100.00
73240;BME280;61452;40.054;4.110;2023-10-31T15:38:50;101744.63;;;22.02;100.00
73240;BME280;61452;40.054;4.110;2023-10-31T15:43:52;101750.09;;;22.01;100.00
73240;BME280;61452;40.054;4.110;2023-10-31T15:48:56;101744.34;;;21.94;100.00
73240;BME280;61452;40.054;4.110;2023-10-31T15:53:58;101743.31;;;21.97;100.00
73240;BME280;61452;40.054;4.110;2023-10-31T15:59:00;101747.66;;;21.98;100.00
73240;BME280;61452;40.054;4.110;2023-10-31T16:04:04;101746.56;;;22.00;100.00
73240;BME280;61452;40.054;4.110;2023-10-31T16:09:06;101748.66;;;21.97;100.00
73240;BME280;61452;40.054;4.110;2023-10-31T16:14:08;101750.09;;;22.01;100.00
73240;BME280;61452;40.054;4.110;2023-10-31T16:19:11;101743.78;;;22.02;100.00
73240;BME280;61452;40.054;4.110;2023-10-31T16:24:13;101747.28;;;22.02;100.00
73240;BME280;61452;40.054;4.110;2023-10-31T16:29:15;101749.13;;;22.02;100.00
73240;BME280;61452;40.054;4.110;2023-10-31T16:34:17;101754.47;;;22.02;100.00
73240;BME280;61452;40.054;4.110;2023-10-31T16:39:21;101764.19;;;22.03;100.00
73240;BME280;61452;40.054;4.110;2023-10-31T16:44:23;101765.25;;;22.00;100.00
73240;BME280;61452;40.054;4.110;2023-10-31T16:49:25;101760.78;;;22.01;100.00
73240;BME280;61452;40.054;4.110;2023-10-31T16:54:27;101760.66;;;22.02;100.00
73240;BME280;61452;40.054;4.110;2023-10-31T16:59:29;101762.59;;;22.00;100.00
73240;BME280;61452;40.054;4.110;2023-10-31T17:04:32;101766.13;;;22.01;100.00
73240;BME280;61452;40.054;4.110;2023-10-31T17:09:37;101763.31;;;22.02;100.00
73240;BME280;61452;40.054;4.110;2023-10-31T17:14:39;101763.44;;;22.01;100.00
73240;BME280;61452;40.054;4.110;2023-10-31T17:19:42;101753.00;;;21.98;100.00
73240;BME280;61452;40.054;4.110;2023-10-31T17:24:44;101762.59;;;22.00;100.00
73240;BME280;61452;40.054;4.110;2023-10-31T17:29:50;101771.47;;;22.01;100.00
73240;BME280;61452;40.054;4.110;2023-10-31T17:34:52;101778.63;;;22.00;100.00
73240;BME280;61452;40.054;4.110;2023-10-31T17:39:54;101783.38;;;21.97;100.00
73240;BME280;61452;40.054;4.110;2023-10-31T17:44:56;101788.56;;;21.98;100.00
73240;BME280;61452;40.054;4.110;2023-10-31T17:49:58;101801.94;;;21.98;100.00
73240;BME280;61452;40.054;4.110;2023-10-31T17:55:01;101811.75;;;21.98;100.00
73240;BME280;61452;40.054;4.110;2023-10-31T18:00:03;101821.50;;;21.99;100.00
73240;BME280;61452;40.054;4.110;2023-10-31T18:05:12;101821.59;;;21.97;100.00
73240;BME280;61452;40.054;4.110;2023-10-31T18:10:15;101813.47;;;21.99;100.00
73240;BME280;61452;40.054;4.110;2023-10-31T18:15:17;101817.25;;;21.96;100.00
73240;BME280;61452;40.054;4.110;2023-10-31T18:20:21;101813.72;;;21.96;100.00
73240;BME280;61452;40.054;4.110;2023-10-31T18:25:23;101819.06;;;21.96;100.00
73240;BME280;61452;40.054;4.110;2023-10-31T18:30:25;101812.75;;;21.97;100.00
73240;BME280;61452;40.054;4.110;2023-10-31T18:35:28;101821.38;;;22.00;100.00
73240;BME280;61452;40.054;4.110;2023-10-31T18:40:31;101806.03;;;21.91;100.00
73240;BME280;61452;40.054;4.110;2023-10-31T18:45:34;101812.75;;;21.97;100.00
73240;BME280;61452;40.054;4.110;2023-10-31T18:50:36;101802.19;;;21.95;100.00
73240;BME280;61452;40.054;4.110;2023-10-31T18:55:38;101788.84;;;21.95;100.00
73240;BME280;61452;40.054;4.110;2023-10-31T19:00:41;101796.75;;;21.97;100.00
73240;BME280;61452;40.054;4.110;2023-10-31T19:05:43;101804.88;;;21.95;100.00
73240;BME280;61452;40.054;4.110;2023-10-31T19:10:46;101792.44;;;21.94;100.00
73240;BME280;61452;40.054;4.110;2023-10-31T19:15:49;101773.00;;;21.92;100.00
73240;BME280;61452;40.054;4.110;2023-10-31T19:20:51;101776.41;;;21.94;100.00
73240;BME280;61452;40.054;4.110;2023-10-31T19:25:53;101784.44;;;21.94;100.00
73240;BME280;61452;40.054;4.110;2023-10-31T19:30:55;101782.72;;;21.93;100.00
73240;BME280;61452;40.054;4.110;2023-10-31T19:35:58;101765.00;;;21.92;100.00
73240;BME280;61452;40.054;4.110;2023-10-31T19:41:00;101773.00;;;21.92;100.00
73240;BME280;61452;40.054;4.110;2023-10-31T19:46:03;101772.03;;;21.93;100.00
73240;BME280;61452;40.054;4.110;2023-10-31T19:51:09;101772.16;;;21.92;100.00
73240;BME280;61452;40.054;4.110;2023-10-31T19:56:21;101775.69;;;21.92;100.00
73240;BME280;61452;40.054;4.110;2023-10-31T20:01:23;101772.88;;;21.94;100.00
73240;BME280;61452;40.054;4.110;2023-10-31T20:06:27;101775.56;;;21.94;100.00
73240;BME280;61452;40.054;4.110;2023-10-31T20:11:30;101769.38;;;21.93;100.00
73240;BME280;61452;40.054;4.110;2023-10-31T20:16:32;101777.50;;;21.92;100.00
73240;BME280;61452;40.054;4.110;2023-10-31T20:21:35;101780.16;;;21.92;100.00
73240;BME280;61452;40.054;4.110;2023-10-31T20:26:37;101782.72;;;21.93;100.00
73240;BME280;61452;40.054;4.110;2023-10-31T20:31:39;101794.38;;;21.92;100.00
73240;BME280;61452;40.054;4.110;2023-10-31T20:36:41;101788.19;;;21.92;100.00
73240;BME280;61452;40.054;4.110;2023-10-31T20:41:44;101786.75;;;21.88;100.00
73240;BME280;61452;40.054;4.110;2023-10-31T20:46:47;101791.00;;;21.90;100.00
73240;BME280;61452;40.054;4.110;2023-10-31T20:51:51;101792.81;;;21.90;100.00
73240;BME280;61452;40.054;4.110;2023-10-31T20:56:54;101786.50;;;21.91;100.00
73240;BME280;61452;40.054;4.110;2023-10-31T21:01:58;101787.31;;;21.91;100.00
73240;BME280;61452;40.054;4.110;2023-10-31T21:07:00;101787.31;;;21.91;100.00
73240;BME280;61452;40.054;4.110;2023-10-31T21:12:03;101772.31;;;21.90;100.00
73240;BME280;61452;40.054;4.110;2023-10-31T21:17:06;101769.47;;;21.92;100.00
73240;BME280;61452;40.054;4.110;2023-10-31T21:22:09;101760.75;;;21.90;100.00
73240;BME280;61452;40.054;4.110;2023-10-31T21:27:12;101757.25;;;21.89;100.00
73240;BME280;61452;40.054;4.110;2023-10-31T21:32:14;101753.59;;;21.90;100.00
73240;BME280;61452;40.054;4.110;2023-10-31T21:37:16;101750.06;;;21.90;100.00
73240;BME280;61452;40.054;4.110;2023-10-31T21:42:18;101742.19;;;21.88;100.00
73240;BME280;61452;40.054;4.110;2023-10-31T21:47:20;101742.19;;;21.88;100.00
73240;BME280;61452;40.054;4.110;2023-10-31T21:52:23;101731.50;;;21.88;100.00
73240;BME280;61452;40.054;4.110;2023-10-31T21:57:26;101734.16;;;21.88;100.00
73240;BME280;61452;40.054;4.110;2023-10-31T22:02:30;101721.66;;;21.89;100.00
73240;BME280;61452;40.054;4.110;2023-10-31T22:07:32;101717.16;;;21.89;100.00
73240;BME280;61452;40.054;4.110;2023-10-31T22:12:35;101722.63;;;21.88;100.00
73240;BME280;61452;40.054;4.110;2023-10-31T22:17:37;101709.38;;;21.86;100.00
73240;BME280;61452;40.054;4.110;2023-10-31T22:22:39;101701.25;;;21.88;100.00
73240;BME280;61452;40.054;4.110;2023-10-31T22:27:42;101694.22;;;21.87;100.00
73240;BME280;61452;40.054;4.110;2023-10-31T22:32:44;101691.53;;;21.87;100.00
73240;BME280;61452;40.054;4.110;2023-10-31T22:37:46;101692.50;;;21.86;100.00
73240;BME280;61452;40.054;4.110;2023-10-31T22:42:48;101689.00;;;21.85;100.00
73240;BME280;61452;40.054;4.110;2023-10-31T22:47:50;101686.47;;;21.84;100.00
73240;BME280;61452;40.054;4.110;2023-10-31T22:52:53;101690.00;;;21.84;100.00
73240;BME280;61452;40.054;4.110;2023-10-31T22:57:55;101677.47;;;21.85;100.00
73240;BME280;61452;40.054;4.110;2023-10-31T23:02:57;101679.31;;;21.84;100.00
73240;BME280;61452;40.054;4.110;2023-10-31T23:08:00;101683.66;;;21.85;100.00
73240;BME280;61452;40.054;4.110;2023-10-31T23:13:02;101678.44;;;21.84;100.00
73240;BME280;61452;40.054;4.110;2023-10-31T23:18:05;101673.69;;;21.87;100.00
73240;BME280;61452;40.054;4.110;2023-10-31T23:23:08;101674.53;;;21.88;100.00
73240;BME280;61452;40.054;4.110;2023-10-31T23:28:10;101668.47;;;21.86;100.00
73240;BME280;61452;40.054;4.110;2023-10-31T23:33:12;101662.28;;;21.85;100.00
73240;BME280;61452;40.054;4.110;2023-10-31T23:38:15;101670.28;;;21.85;100.00
73240;BME280;61452;40.054;4.110;2023-10-31T23:43:17;101670.28;;;21.85;100.00
73240;BME280;61452;40.054;4.110;2023-10-31T23:48:19;101663.28;;;21.84;100.00
73240;BME280;61452;40.054;4.110;2023-10-31T23:53:21;101665.94;;;21.84;100.00
73240;BME280;61452;40.054;4.110;2023-10-31T23:58:23;101664.13;;;21.85;100.00
